sensor_id;sensor_type;location;lat;lon;timestamp;pressure;altitude;pressure_sealevel;temperature
74533;BMP180;63012;51.096;-115.366;2022-11-11T00:01:42;87124.80;;;-4.10
74533;BMP180;63012;51.096;-115.366;2022-11-11T00:04:08;87123.40;;;-4.10
74533;BMP180;63012;51.096;-115.366;2022-11-11T00:06:35;87131.20;;;-4.16
74533;BMP180;63012;51.096;-115.366;2022-11-11T00:09:02;87148.40;;;-4.20
74533;BMP180;63012;51.096;-115.366;2022-11-11T00:11:29;87146.20;;;-4.20
74533;BMP180;63012;51.096;-115.366;2022-11-11T00:13:57;87158.20;;;-4.30
74533;BMP180;63012;51.096;-115.366;2022-11-11T00:16:24;87142.20;;;-4.34
74533;BMP180;63012;51.096;-115.366;2022-11-11T00:18:51;87148.60;;;-4.40
74533;BMP180;63012;51.096;-115.366;2022-11-11T00:21:36;87140.80;;;-4.40
74533;BMP180;63012;51.096;-115.366;2022-11-11T00:24:28;87145.80;;;-4.50
74533;BMP180;63012;51.096;-115.366;2022-11-11T00:27:14;87145.40;;;-4.50
74533;BMP180;63012;51.096;-115.366;2022-11-11T00:29:46;87144.00;;;-4.50
74533;BMP180;63012;51.096;-115.366;2022-11-11T00:32:14;87143.20;;;-4.50
74533;BMP180;63012;51.096;-115.366;2022-11-11T00:34:56;87133.60;;;-4.50
74533;BMP180;63012;51.096;-115.366;2022-11-11T00:37:44;87137.60;;;-4.40
74533;BMP180;63012;51.096;-115.366;2022-11-11T00:40:12;87137.60;;;-4.40
74533;BMP180;63012;51.096;-115.366;2022-11-11T00:42:39;87134.20;;;-4.40
74533;BMP180;63012;51.096;-115.366;2022-11-11T00:45:08;87132.20;;;-4.40
74533;BMP180;63012;51.096;-115.366;2022-11-11T00:47:35;87127.80;;;-4.50
74533;BMP180;63012;51.096;-115.366;2022-11-11T00:50:27;87142.80;;;-4.56
74533;BMP180;63012;51.096;-115.366;2022-11-11T00:53:20;87143.20;;;-4.60
74533;BMP180;63012;51.096;-115.366;2022-11-11T00:55:48;87146.20;;;-4.60
74533;BMP180;63012;51.096;-115.366;2022-11-11T00:58:15;87139.40;;;-4.60
74533;BMP180;63012;51.096;-115.366;2022-11-11T01:00:43;87150.20;;;-4.60
74533;BMP180;63012;51.096;-115.366;2022-11-11T01:03:10;87140.80;;;-4.50
74533;BMP180;63012;51.096;-115.366;2022-11-11T01:05:37;87141.40;;;-4.50
74533;BMP180;63012;51.096;-115.366;2022-11-11T01:08:05;87146.40;;;-4.50
74533;BMP180;63012;51.096;-115.366;2022-11-11T01:10:32;87153.80;;;-4.50
74533;BMP180;63012;51.096;-115.366;2022-11-11T01:13:22;87140.60;;;-4.44
74533;BMP180;63012;51.096;-115.366;2022-11-11T01:15:56;87155.00;;;-4.40
74533;BMP180;63012;51.096;-115.366;2022-11-11T01:18:25;87160.20;;;-4.36
74533;BMP180;63012;51.096;-115.366;2022-11-11T01:21:03;87158.60;;;-4.40
74533;BMP180;63012;51.096;-115.366;2022-11-11T01:23:35;87162.60;;;-4.40
74533;BMP180;63012;51.096;-115.366;2022-11-11T01:28:57;87169.00;;;-4.50
74533;BMP180;63012;51.096;-115.366;2022-11-11T01:31:26;87164.20;;;-4.46
74533;BMP180;63012;51.096;-115.366;2022-11-11T01:33:53;87167.20;;;-4.40
74533;BMP180;63012;51.096;-115.366;2022-11-11T01:36:24;87176.00;;;-4.30
74533;BMP180;63012;51.096;-115.366;2022-11-11T01:38:55;87180.60;;;-4.20
74533;BMP180;63012;51.096;-115.366;2022-11-11T01:41:31;87180.00;;;-4.12
74533;BMP180;63012;51.096;-115.366;2022-11-11T01:46:54;87181.60;;;-4.10
74533;BMP180;63012;51.096;-115.366;2022-11-11T01:49:37;87186.20;;;-4.00
74533;BMP180;63012;51.096;-115.366;2022-11-11T01:54:40;87182.60;;;-4.00
74533;BMP180;63012;51.096;-115.366;2022-11-11T02:00:12;87188.60;;;-3.90
74533;BMP180;63012;51.096;-115.366;2022-11-11T02:02:57;87193.00;;;-3.90
74533;BMP180;63012;51.096;-115.366;2022-11-11T02:05:27;87193.40;;;-3.90
74533;BMP180;63012;51.096;-115.366;2022-11-11T02:08:35;87195.00;;;-3.90
74533;BMP180;63012;51.096;-115.366;2022-11-11T02:11:15;87197.20;;;-3.90
74533;BMP180;63012;51.096;-115.366;2022-11-11T02:14:02;87181.40;;;-3.88
74533;BMP180;63012;51.096;-115.366;2022-11-11T02:16:49;87189.40;;;-3.90
74533;BMP180;63012;51.096;-115.366;2022-11-11T02:19:32;87197.80;;;-3.90
74533;BMP180;63012;51.096;-115.366;2022-11-11T02:22:02;87200.20;;;-3.98
74533;BMP180;63012;51.096;-115.366;2022-11-11T02:24:32;87182.80;;;-4.02
74533;BMP180;63012;51.096;-115.366;2022-11-11T02:27:01;87191.40;;;-4.10
74533;BMP180;63012;51.096;-115.366;2022-11-11T02:29:30;87190.00;;;-4.20
74533;BMP180;63012;51.096;-115.366;2022-11-11T02:31:57;87194.00;;;-4.26
74533;BMP180;63012;51.096;-115.366;2022-11-11T02:34:32;87200.40;;;-4.28
74533;BMP180;63012;51.096;-115.366;2022-11-11T02:37:03;87196.60;;;-4.22
74533;BMP180;63012;51.096;-115.366;2022-11-11T02:39:33;87201.00;;;-4.20
74533;BMP180;63012;51.096;-115.366;2022-11-11T02:42:03;87199.20;;;-4.20
74533;BMP180;63012;51.096;-115.366;2022-11-11T02:44:36;87203.40;;;-4.20
74533;BMP180;63012;51.096;-115.366;2022-11-11T02:47:03;87201.40;;;-4.26
74533;BMP180;63012;51.096;-115.366;2022-11-11T02:49:31;87202.40;;;-4.30
74533;BMP180;63012;51.096;-115.366;2022-11-11T02:51:57;87207.40;;;-4.30
74533;BMP180;63012;51.096;-115.366;2022-11-11T02:54:25;87213.20;;;-4.40
74533;BMP180;63012;51.096;-115.366;2022-11-11T02:56:51;87208.80;;;-4.40
74533;BMP180;63012;51.096;-115.366;2022-11-11T02:59:39;87208.20;;;-4.40
74533;BMP180;63012;51.096;-115.366;2022-11-11T03:02:07;87216.60;;;-4.40
74533;BMP180;63012;51.096;-115.366;2022-11-11T03:04:35;87220.00;;;-4.42
74533;BMP180;63012;51.096;-115.366;2022-11-11T03:07:04;87226.60;;;-4.40
74533;BMP180;63012;51.096;-115.366;2022-11-11T03:09:31;87226.80;;;-4.50
74533;BMP180;63012;51.096;-115.366;2022-11-11T03:11:59;87228.40;;;-4.50
74533;BMP180;63012;51.096;-115.366;2022-11-11T03:14:26;87228.20;;;-4.50
74533;BMP180;63012;51.096;-115.366;2022-11-11T03:16:53;87232.60;;;-4.54
74533;BMP180;63012;51.096;-115.366;2022-11-11T03:19:39;87238.60;;;-4.54
74533;BMP180;63012;51.096;-115.366;2022-11-11T03:22:06;87240.80;;;-4.52
74533;BMP180;63012;51.096;-115.366;2022-11-11T03:24:33;87241.00;;;-4.50
74533;BMP180;63012;51.096;-115.366;2022-11-11T03:27:18;87246.20;;;-4.50
74533;BMP180;63012;51.096;-115.366;2022-11-11T03:29:45;87249.20;;;-4.50
74533;BMP180;63012;51.096;-115.366;2022-11-11T03:32:12;87254.20;;;-4.50
74533;BMP180;63012;51.096;-115.366;2022-11-11T03:34:42;87253.80;;;-4.50
74533;BMP180;63012;51.096;-115.366;2022-11-11T03:37:10;87250.60;;;-4.50
74533;BMP180;63012;51.096;-115.366;2022-11-11T03:39:56;87249.00;;;-4.50
74533;BMP180;63012;51.096;-115.366;2022-11-11T03:42:23;87242.60;;;-4.40
74533;BMP180;63012;51.096;-115.366;2022-11-11T03:44:50;87250.80;;;-4.40
74533;BMP180;63012;51.096;-115.366;2022-11-11T03:47:17;87254.80;;;-4.40
74533;BMP180;63012;51.096;-115.366;2022-11-11T03:49:48;87257.80;;;-4.40
74533;BMP180;63012;51.096;-115.366;2022-11-11T03:52:15;87264.60;;;-4.40
74533;BMP180;63012;51.096;-115.366;2022-11-11T03:54:42;87272.60;;;-4.38
74533;BMP180;63012;51.096;-115.366;2022-11-11T03:57:09;87273.00;;;-4.40
74533;BMP180;63012;51.096;-115.366;2022-11-11T03:59:55;87269.40;;;-4.48
74533;BMP180;63012;51.096;-115.366;2022-11-11T04:02:22;87272.20;;;-4.60
74533;BMP180;63012;51.096;-115.366;2022-11-11T04:05:07;87282.80;;;-4.70
74533;BMP180;63012;51.096;-115.366;2022-11-11T04:07:53;87283.60;;;-4.70
74533;BMP180;63012;51.096;-115.366;2022-11-11T04:10:38;87285.00;;;-4.80
74533;BMP180;63012;51.096;-115.366;2022-11-11T04:13:06;87285.60;;;-4.84
74533;BMP180;63012;51.096;-115.366;2022-11-11T04:15:51;87296.20;;;-4.90
74533;BMP180;63012;51.096;-115.366;2022-11-11T04:18:37;87299.80;;;-4.88
74533;BMP180;63012;51.096;-115.366;2022-11-11T04:21:23;87294.60;;;-4.88
74533;BMP180;63012;51.096;-115.366;2022-11-11T04:24:20;87293.20;;;-4.96
74533;BMP180;63012;51.096;-115.366;2022-11-11T04:27:09;87306.80;;;-5.00
74533;BMP180;63012;51.096;-115.366;2022-11-11T04:29:37;87300.60;;;-5.02
74533;BMP180;63012;51.096;-115.366;2022-11-11T04:32:10;87312.20;;;-5.10
74533;BMP180;63012;51.096;-115.366;2022-11-11T04:35:02;87303.60;;;-5.00
74533;BMP180;63012;51.096;-115.366;2022-11-11T04:37:36;87309.60;;;-5.00
74533;BMP180;63012;51.096;-115.366;2022-11-11T04:40:11;87319.20;;;-5.10
74533;BMP180;63012;51.096;-115.366;2022-11-11T04:42:56;87308.00;;;-5.28
74533;BMP180;63012;51.096;-115.366;2022-11-11T04:45:23;87308.40;;;-5.32
74533;BMP180;63012;51.096;-115.366;2022-11-11T04:48:08;87306.80;;;-5.40
74533;BMP180;63012;51.096;-115.366;2022-11-11T04:50:39;87314.60;;;-5.30
74533;BMP180;63012;51.096;-115.366;2022-11-11T04:53:10;87311.40;;;-5.30
74533;BMP180;63012;51.096;-115.366;2022-11-11T04:55:38;87319.80;;;-5.30
74533;BMP180;63012;51.096;-115.366;2022-11-11T04:58:28;87310.80;;;-5.30
74533;BMP180;63012;51.096;-115.366;2022-11-11T05:00:55;87316.20;;;-5.30
74533;BMP180;63012;51.096;-115.366;2022-11-11T05:03:22;87318.00;;;-5.36
74533;BMP180;63012;51.096;-115.366;2022-11-11T05:05:59;87320.40;;;-5.32
74533;BMP180;63012;51.096;-115.366;2022-11-11T05:08:48;87333.60;;;-5.34
74533;BMP180;63012;51.096;-115.366;2022-11-11T05:11:30;87334.40;;;-5.40
74533;BMP180;63012;51.096;-115.366;2022-11-11T05:14:00;87339.20;;;-5.40
74533;BMP180;63012;51.096;-115.366;2022-11-11T05:16:53;87351.20;;;-5.50
74533;BMP180;63012;51.096;-115.366;2022-11-11T05:19:38;87344.80;;;-5.50
74533;BMP180;63012;51.096;-115.366;2022-11-11T05:22:36;87336.00;;;-5.60
74533;BMP180;63012;51.096;-115.366;2022-11-11T05:25:05;87353.00;;;-5.70
74533;BMP180;63012;51.096;-115.366;2022-11-11T05:27:52;87359.80;;;-5.80
74533;BMP180;63012;51.096;-115.366;2022-11-11T05:30:21;87354.00;;;-5.84
74533;BMP180;63012;51.096;-115.366;2022-11-11T05:32:49;87355.40;;;-5.90
74533;BMP180;63012;51.096;-115.366;2022-11-11T05:35:17;87363.40;;;-6.00
74533;BMP180;63012;51.096;-115.366;2022-11-11T05:37:44;87372.40;;;-6.06
74533;BMP180;63012;51.096;-115.366;2022-11-11T05:40:31;87369.00;;;-6.10
74533;BMP180;63012;51.096;-115.366;2022-11-11T05:42:59;87361.20;;;-6.20
74533;BMP180;63012;51.096;-115.366;2022-11-11T05:45:26;87371.60;;;-6.28
74533;BMP180;63012;51.096;-115.366;2022-11-11T05:47:53;87372.40;;;-6.30
74533;BMP180;63012;51.096;-115.366;2022-11-11T05:50:20;87364.00;;;-6.40
74533;BMP180;63012;51.096;-115.366;2022-11-11T05:52:48;87365.60;;;-6.46
74533;BMP180;63012;51.096;-115.366;2022-11-11T05:55:16;87370.20;;;-6.50
74533;BMP180;63012;51.096;-115.366;2022-11-11T05:57:43;87373.80;;;-6.50
74533;BMP180;63012;51.096;-115.366;2022-11-11T06:00:11;87374.80;;;-6.50
74533;BMP180;63012;51.096;-115.366;2022-11-11T06:02:39;87364.00;;;-6.60
74533;BMP180;63012;51.096;-115.366;2022-11-11T06:05:06;87375.40;;;-6.64
74533;BMP180;63012;51.096;-115.366;2022-11-11T06:07:38;87376.00;;;-6.72
74533;BMP180;63012;51.096;-115.366;2022-11-11T06:10:06;87375.40;;;-6.80
74533;BMP180;63012;51.096;-115.366;2022-11-11T06:12:52;87375.60;;;-6.88
74533;BMP180;63012;51.096;-115.366;2022-11-11T06:15:37;87365.40;;;-6.90
74533;BMP180;63012;51.096;-115.366;2022-11-11T06:18:05;87396.80;;;-7.00
74533;BMP180;63012;51.096;-115.366;2022-11-11T06:20:33;87388.20;;;-7.00
74533;BMP180;63012;51.096;-115.366;2022-11-11T06:23:04;87377.80;;;-7.02
74533;BMP180;63012;51.096;-115.366;2022-11-11T06:25:33;87372.80;;;-7.10
74533;BMP180;63012;51.096;-115.366;2022-11-11T06:28:18;87386.40;;;-7.20
74533;BMP180;63012;51.096;-115.366;2022-11-11T06:30:46;87381.80;;;-7.20
74533;BMP180;63012;51.096;-115.366;2022-11-11T06:33:12;87379.80;;;-7.30
74533;BMP180;63012;51.096;-115.366;2022-11-11T06:35:43;87391.60;;;-7.30
74533;BMP180;63012;51.096;-115.366;2022-11-11T06:38:10;87389.60;;;-7.30
74533;BMP180;63012;51.096;-115.366;2022-11-11T06:40:38;87385.20;;;-7.40
74533;BMP180;63012;51.096;-115.366;2022-11-11T06:43:05;87385.20;;;-7.44
74533;BMP180;63012;51.096;-115.366;2022-11-11T06:45:32;87374.20;;;-7.50
74533;BMP180;63012;51.096;-115.366;2022-11-11T06:48:01;87404.60;;;-7.56
74533;BMP180;63012;51.096;-115.366;2022-11-11T06:50:29;87399.80;;;-7.50
74533;BMP180;63012;51.096;-115.366;2022-11-11T06:52:56;87393.80;;;-7.50
74533;BMP180;63012;51.096;-115.366;2022-11-11T06:55:29;87390.60;;;-7.50
74533;BMP180;63012;51.096;-115.366;2022-11-11T06:58:06;87388.60;;;-7.50
74533;BMP180;63012;51.096;-115.366;2022-11-11T07:00:35;87387.20;;;-7.54
74533;BMP180;63012;51.096;-115.366;2022-11-11T07:03:04;87376.20;;;-7.60
74533;BMP180;63012;51.096;-115.366;2022-11-11T07:05:32;87379.20;;;-7.70
74533;BMP180;63012;51.096;-115.366;2022-11-11T07:08:05;87384.20;;;-7.70
74533;BMP180;63012;51.096;-115.366;2022-11-11T07:10:35;87372.80;;;-7.80
74533;BMP180;63012;51.096;-115.366;2022-11-11T07:13:05;87387.80;;;-7.82
74533;BMP180;63012;51.096;-115.366;2022-11-11T07:15:33;87379.20;;;-7.90
74533;BMP180;63012;51.096;-115.366;2022-11-11T07:18:01;87377.80;;;-7.90
74533;BMP180;63012;51.096;-115.366;2022-11-11T07:20:29;87395.80;;;-7.90
74533;BMP180;63012;51.096;-115.366;2022-11-11T07:22:56;87380.20;;;-7.90
74533;BMP180;63012;51.096;-115.366;2022-11-11T07:25:23;87379.00;;;-7.90
74533;BMP180;63012;51.096;-115.366;2022-11-11T07:27:51;87379.20;;;-7.96
74533;BMP180;63012;51.096;-115.366;2022-11-11T07:30:17;87394.80;;;-8.00
74533;BMP180;63012;51.096;-115.366;2022-11-11T07:32:50;87395.60;;;-8.00
74533;BMP180;63012;51.096;-115.366;2022-11-11T07:35:19;87387.20;;;-8.00
74533;BMP180;63012;51.096;-115.366;2022-11-11T07:37:47;87387.80;;;-8.00
74533;BMP180;63012;51.096;-115.366;2022-11-11T07:40:17;87396.00;;;-8.00
74533;BMP180;63012;51.096;-115.366;2022-11-11T07:42:45;87401.00;;;-8.00
74533;BMP180;63012;51.096;-115.366;2022-11-11T07:45:13;87390.40;;;-8.00
74533;BMP180;63012;51.096;-115.366;2022-11-11T07:47:43;87375.00;;;-8.00
74533;BMP180;63012;51.096;-115.366;2022-11-11T07:50:11;87400.60;;;-8.02
74533;BMP180;63012;51.096;-115.366;2022-11-11T07:52:39;87389.00;;;-8.00
74533;BMP180;63012;51.096;-115.366;2022-11-11T07:55:06;87404.00;;;-7.98
74533;BMP180;63012;51.096;-115.366;2022-11-11T07:57:35;87389.00;;;-7.90
74533;BMP180;63012;51.096;-115.366;2022-11-11T08:00:03;87383.60;;;-7.90
74533;BMP180;63012;51.096;-115.366;2022-11-11T08:02:30;87375.60;;;-7.90
74533;BMP180;63012;51.096;-115.366;2022-11-11T08:04:57;87388.60;;;-7.90
74533;BMP180;63012;51.096;-115.366;2022-11-11T08:07:24;87385.40;;;-7.90
74533;BMP180;63012;51.096;-115.366;2022-11-11T08:09:51;87388.60;;;-7.90
74533;BMP180;63012;51.096;-115.366;2022-11-11T08:12:18;87375.00;;;-7.84
74533;BMP180;63012;51.096;-115.366;2022-11-11T08:15:05;87383.80;;;-7.82
74533;BMP180;63012;51.096;-115.366;2022-11-11T08:17:37;87388.20;;;-7.80
74533;BMP180;63012;51.096;-115.366;2022-11-11T08:20:09;87374.60;;;-7.90
74533;BMP180;63012;51.096;-115.366;2022-11-11T08:22:40;87374.20;;;-8.00
74533;BMP180;63012;51.096;-115.366;2022-11-11T08:25:10;87365.80;;;-8.00
74533;BMP180;63012;51.096;-115.366;2022-11-11T08:27:41;87376.80;;;-8.06
74533;BMP180;63012;51.096;-115.366;2022-11-11T08:30:10;87379.00;;;-8.10
74533;BMP180;63012;51.096;-115.366;2022-11-11T08:32:37;87374.20;;;-8.10
74533;BMP180;63012;51.096;-115.366;2022-11-11T08:35:05;87362.60;;;-8.10
74533;BMP180;63012;51.096;-115.366;2022-11-11T08:37:32;87369.80;;;-8.10
74533;BMP180;63012;51.096;-115.366;2022-11-11T08:39:59;87366.60;;;-8.20
74533;BMP180;63012;51.096;-115.366;2022-11-11T08:42:26;87364.00;;;-8.20
74533;BMP180;63012;51.096;-115.366;2022-11-11T08:44:54;87368.60;;;-8.30
74533;BMP180;63012;51.096;-115.366;2022-11-11T08:47:20;87366.00;;;-8.40
74533;BMP180;63012;51.096;-115.366;2022-11-11T08:49:50;87381.00;;;-8.40
74533;BMP180;63012;51.096;-115.366;2022-11-11T08:52:17;87372.00;;;-8.40
74533;BMP180;63012;51.096;-115.366;2022-11-11T08:54:44;87381.00;;;-8.40
74533;BMP180;63012;51.096;-115.366;2022-11-11T08:57:11;87362.80;;;-8.42
74533;BMP180;63012;51.096;-115.366;2022-11-11T08:59:38;87365.60;;;-8.50
74533;BMP180;63012;51.096;-115.366;2022-11-11T09:02:05;87380.00;;;-8.50
74533;BMP180;63012;51.096;-115.366;2022-11-11T09:04:32;87383.40;;;-8.48
74533;BMP180;63012;51.096;-115.366;2022-11-11T09:06:59;87365.80;;;-8.40
74533;BMP180;63012;51.096;-115.366;2022-11-11T09:09:26;87369.40;;;-8.40
74533;BMP180;63012;51.096;-115.366;2022-11-11T09:11:53;87381.40;;;-8.40
74533;BMP180;63012;51.096;-115.366;2022-11-11T09:14:20;87366.00;;;-8.40
74533;BMP180;63012;51.096;-115.366;2022-11-11T09:16:48;87367.20;;;-8.40
74533;BMP180;63012;51.096;-115.366;2022-11-11T09:19:15;87368.40;;;-8.30
74533;BMP180;63012;51.096;-115.366;2022-11-11T09:21:41;87371.40;;;-8.30
74533;BMP180;63012;51.096;-115.366;2022-11-11T09:24:08;87361.60;;;-8.28
74533;BMP180;63012;51.096;-115.366;2022-11-11T09:26:36;87354.80;;;-8.20
74533;BMP180;63012;51.096;-115.366;2022-11-11T09:29:03;87365.80;;;-8.20
74533;BMP180;63012;51.096;-115.366;2022-11-11T09:31:30;87365.20;;;-8.28
74533;BMP180;63012;51.096;-115.366;2022-11-11T09:33:57;87387.40;;;-8.30
74533;BMP180;63012;51.096;-115.366;2022-11-11T09:36:24;87375.40;;;-8.30
74533;BMP180;63012;51.096;-115.366;2022-11-11T09:38:51;87383.60;;;-8.40
74533;BMP180;63012;51.096;-115.366;2022-11-11T09:44:56;87381.40;;;-8.32
74533;BMP180;63012;51.096;-115.366;2022-11-11T09:50:27;87386.20;;;-8.38
74533;BMP180;63012;51.096;-115.366;2022-11-11T09:53:24;87387.00;;;-8.30
74533;BMP180;63012;51.096;-115.366;2022-11-11T09:56:10;87395.00;;;-8.20
74533;BMP180;63012;51.096;-115.366;2022-11-11T09:58:48;87388.00;;;-8.20
74533;BMP180;63012;51.096;-115.366;2022-11-11T10:01:46;87389.60;;;-8.24
74533;BMP180;63012;51.096;-115.366;2022-11-11T10:04:56;87391.60;;;-8.30
74533;BMP180;63012;51.096;-115.366;2022-11-11T10:07:59;87402.00;;;-8.30
74533;BMP180;63012;51.096;-115.366;2022-11-11T10:10:45;87376.60;;;-8.30
74533;BMP180;63012;51.096;-115.366;2022-11-11T10:13:21;87382.40;;;-8.40
74533;BMP180;63012;51.096;-115.366;2022-11-11T10:21:16;87385.20;;;-8.60
74533;BMP180;63012;51.096;-115.366;2022-11-11T10:23:51;87397.40;;;-8.72
74533;BMP180;63012;51.096;-115.366;2022-11-11T10:26:37;87392.00;;;-8.80
74533;BMP180;63012;51.096;-115.366;2022-11-11T10:29:40;87395.40;;;-8.90
74533;BMP180;63012;51.096;-115.366;2022-11-11T10:34:40;87402.60;;;-8.90
74533;BMP180;63012;51.096;-115.366;2022-11-11T10:37:39;87390.20;;;-9.00
74533;BMP180;63012;51.096;-115.366;2022-11-11T10:40:26;87398.20;;;-9.00
74533;BMP180;63012;51.096;-115.366;2022-11-11T10:42:55;87393.60;;;-9.00
74533;BMP180;63012;51.096;-115.366;2022-11-11T10:45:49;87394.40;;;-9.00
74533;BMP180;63012;51.096;-115.366;2022-11-11T10:48:31;87392.80;;;-9.02
74533;BMP180;63012;51.096;-115.366;2022-11-11T10:51:02;87384.40;;;-9.10
74533;BMP180;63012;51.096;-115.366;2022-11-11T10:56:23;87385.40;;;-9.10
74533;BMP180;63012;51.096;-115.366;2022-11-11T11:07:14;87385.40;;;-8.90
74533;BMP180;63012;51.096;-115.366;2022-11-11T11:15:17;87381.20;;;-8.80
74533;BMP180;63012;51.096;-115.366;2022-11-11T11:18:26;87381.80;;;-8.70
74533;BMP180;63012;51.096;-115.366;2022-11-11T11:21:01;87380.80;;;-8.68
74533;BMP180;63012;51.096;-115.366;2022-11-11T11:23:41;87380.20;;;-8.60
74533;BMP180;63012;51.096;-115.366;2022-11-11T11:26:11;87366.60;;;-8.60
74533;BMP180;63012;51.096;-115.366;2022-11-11T11:28:59;87369.80;;;-8.70
74533;BMP180;63012;51.096;-115.366;2022-11-11T11:31:41;87349.60;;;-8.70
74533;BMP180;63012;51.096;-115.366;2022-11-11T11:34:08;87360.80;;;-8.70
74533;BMP180;63012;51.096;-115.366;2022-11-11T11:36:35;87367.20;;;-8.66
74533;BMP180;63012;51.096;-115.366;2022-11-11T11:39:02;87356.00;;;-8.70
74533;BMP180;63012;51.096;-115.366;2022-11-11T11:41:44;87361.80;;;-8.70
74533;BMP180;63012;51.096;-115.366;2022-11-11T11:44:44;87358.40;;;-8.70
74533;BMP180;63012;51.096;-115.366;2022-11-11T12:13:02;87345.60;;;-8.62
74533;BMP180;63012;51.096;-115.366;2022-11-11T12:16:00;87361.60;;;-8.50
74533;BMP180;63012;51.096;-115.366;2022-11-11T12:21:52;87362.80;;;-8.34
74533;BMP180;63012;51.096;-115.366;2022-11-11T12:24:48;87357.40;;;-8.36
74533;BMP180;63012;51.096;-115.366;2022-11-11T12:27:44;87359.80;;;-8.44
74533;BMP180;63012;51.096;-115.366;2022-11-11T12:30:24;87362.40;;;-8.50
74533;BMP180;63012;51.096;-115.366;2022-11-11T12:36:43;87349.60;;;-8.70
74533;BMP180;63012;51.096;-115.366;2022-11-11T12:39:35;87365.40;;;-8.70
74533;BMP180;63012;51.096;-115.366;2022-11-11T12:45:25;87352.60;;;-8.50
74533;BMP180;63012;51.096;-115.366;2022-11-11T12:58:12;87353.40;;;-8.66
74533;BMP180;63012;51.096;-115.366;2022-11-11T13:01:18;87343.20;;;-8.60
74533;BMP180;63012;51.096;-115.366;2022-11-11T13:12:39;87347.60;;;-8.70
74533;BMP180;63012;51.096;-115.366;2022-11-11T13:15:25;87362.60;;;-8.70
74533;BMP180;63012;51.096;-115.366;2022-11-11T13:17:53;87343.20;;;-8.80
74533;BMP180;63012;51.096;-115.366;2022-11-11T13:20:58;87351.80;;;-8.80
74533;BMP180;63012;51.096;-115.366;2022-11-11T13:23:27;87347.00;;;-8.80
74533;BMP180;63012;51.096;-115.366;2022-11-11T13:26:00;87351.80;;;-8.80
74533;BMP180;63012;51.096;-115.366;2022-11-11T13:28:46;87351.80;;;-8.80
74533;BMP180;63012;51.096;-115.366;2022-11-11T13:31:34;87356.40;;;-8.70
74533;BMP180;63012;51.096;-115.366;2022-11-11T13:34:09;87351.40;;;-8.70
74533;BMP180;63012;51.096;-115.366;2022-11-11T13:36:55;87366.40;;;-8.60
74533;BMP180;63012;51.096;-115.366;2022-11-11T13:39:32;87348.00;;;-8.50
74533;BMP180;63012;51.096;-115.366;2022-11-11T13:42:01;87339.20;;;-8.50
74533;BMP180;63012;51.096;-115.366;2022-11-11T13:44:52;87350.00;;;-8.50
74533;BMP180;63012;51.096;-115.366;2022-11-11T13:47:35;87342.20;;;-8.50
74533;BMP180;63012;51.096;-115.366;2022-11-11T13:50:08;87345.40;;;-8.52
74533;BMP180;63012;51.096;-115.366;2022-11-11T13:53:06;87335.00;;;-8.66
74533;BMP180;63012;51.096;-115.366;2022-11-11T13:55:42;87340.80;;;-8.70
74533;BMP180;63012;51.096;-115.366;2022-11-11T13:58:35;87347.20;;;-8.70
74533;BMP180;63012;51.096;-115.366;2022-11-11T14:01:07;87339.80;;;-8.78
74533;BMP180;63012;51.096;-115.366;2022-11-11T14:04:00;87348.00;;;-8.80
74533;BMP180;63012;51.096;-115.366;2022-11-11T14:06:33;87349.80;;;-8.80
74533;BMP180;63012;51.096;-115.366;2022-11-11T14:09:02;87345.80;;;-8.76
74533;BMP180;63012;51.096;-115.366;2022-11-11T14:11:32;87340.20;;;-8.70
74533;BMP180;63012;51.096;-115.366;2022-11-11T14:17:12;87342.00;;;-8.70
74533;BMP180;63012;51.096;-115.366;2022-11-11T14:19:40;87323.60;;;-8.70
74533;BMP180;63012;51.096;-115.366;2022-11-11T14:22:33;87328.80;;;-8.74
74533;BMP180;63012;51.096;-115.366;2022-11-11T14:25:32;87331.40;;;-8.80
74533;BMP180;63012;51.096;-115.366;2022-11-11T14:28:00;87322.00;;;-8.80
74533;BMP180;63012;51.096;-115.366;2022-11-11T14:30:38;87335.20;;;-8.90
74533;BMP180;63012;51.096;-115.366;2022-11-11T14:34:04;87337.60;;;-8.90
74533;BMP180;63012;51.096;-115.366;2022-11-11T14:39:53;87346.40;;;-9.02
74533;BMP180;63012;51.096;-115.366;2022-11-11T14:45:07;87347.80;;;-9.10
74533;BMP180;63012;51.096;-115.366;2022-11-11T14:47:51;87330.80;;;-9.10
74533;BMP180;63012;51.096;-115.366;2022-11-11T14:53:11;87351.60;;;-9.16
74533;BMP180;63012;51.096;-115.366;2022-11-11T14:55:39;87348.20;;;-9.10
74533;BMP180;63012;51.096;-115.366;2022-11-11T14:58:17;87332.80;;;-9.10
74533;BMP180;63012;51.096;-115.366;2022-11-11T15:01:14;87350.00;;;-9.16
74533;BMP180;63012;51.096;-115.366;2022-11-11T15:03:47;87327.80;;;-9.20
74533;BMP180;63012;51.096;-115.366;2022-11-11T15:06:25;87331.80;;;-9.20
74533;BMP180;63012;51.096;-115.366;2022-11-11T15:09:35;87343.40;;;-9.10
74533;BMP180;63012;51.096;-115.366;2022-11-11T15:15:25;87333.20;;;-9.10
74533;BMP180;63012;51.096;-115.366;2022-11-11T15:24:27;87343.60;;;-9.30
74533;BMP180;63012;51.096;-115.366;2022-11-11T15:33:16;87354.40;;;-9.50
74533;BMP180;63012;51.096;-115.366;2022-11-11T15:36:03;87358.40;;;-9.50
74533;BMP180;63012;51.096;-115.366;2022-11-11T15:38:34;87358.80;;;-9.48
74533;BMP180;63012;51.096;-115.366;2022-11-11T15:41:02;87366.40;;;-9.40
74533;BMP180;63012;51.096;-115.366;2022-11-11T15:43:32;87375.80;;;-9.40
74533;BMP180;63012;51.096;-115.366;2022-11-11T15:46:03;87367.20;;;-9.30
74533;BMP180;63012;51.096;-115.366;2022-11-11T15:48:38;87377.40;;;-9.30
74533;BMP180;63012;51.096;-115.366;2022-11-11T15:53:48;87380.40;;;-9.20
74533;BMP180;63012;51.096;-115.366;2022-11-11T15:56:31;87365.60;;;-9.18
74533;BMP180;63012;51.096;-115.366;2022-11-11T15:59:24;87356.80;;;-9.10
74533;BMP180;63012;51.096;-115.366;2022-11-11T16:01:58;87372.40;;;-9.12
74533;BMP180;63012;51.096;-115.366;2022-11-11T16:04:25;87370.40;;;-9.10
74533;BMP180;63012;51.096;-115.366;2022-11-11T16:06:52;87367.80;;;-9.14
74533;BMP180;63012;51.096;-115.366;2022-11-11T16:09:26;87381.40;;;-9.12
74533;BMP180;63012;51.096;-115.366;2022-11-11T16:11:56;87378.40;;;-9.20
74533;BMP180;63012;51.096;-115.366;2022-11-11T16:14:42;87377.40;;;-9.20
74533;BMP180;63012;51.096;-115.366;2022-11-11T16:17:13;87386.60;;;-9.20
74533;BMP180;63012;51.096;-115.366;2022-11-11T16:19:43;87380.40;;;-9.20
74533;BMP180;63012;51.096;-115.366;2022-11-11T16:24:46;87367.80;;;-9.30